Latest Weather Observations for Munglinup West

IDW60801

Issued at 4:03 pm WST Tuesday 23 April 2019 (issued every 10 minutes, with the page automatically refreshed every 10 minutes)

About weather observations | Map of weather stations | Latest weather observations for WA | Other Formats
Station Details ID: 012044 Name: MUNGLINUP WEST Lat: -33.55 Lon: 120.70 Height: 220.0 m
Data from the previous 72 hours. | See also: Recent months at Munglinup West
Date/Time
WST
Temp
°C
App
Temp
°C
Dew
Point
°C
Rel
Hum
%
Delta-T
°C
Wind Press
QNH
hPa
Press
MSL
hPa
Rain since
9am
mm
Dir  Spd
km/h
Gust
km/h
Spd
kts
Gust
kts
23/04:00pm 23.1 18.5 5.5 32 8.9 SSE 19 24 10 13 1024.8 1024.2 0.0
23/03:30pm 24.2 19.0 5.5 30 9.6 SE 22 30 12 16 1024.6 1024.0 0.0
23/03:00pm 24.8 19.7 6.1 30 9.7 SSE 22 32 12 17 1024.3 1023.8 0.0
23/02:30pm 25.9 23.2 3.8 24 11.1 SSW 7 13 4 7 1024.0 1023.5 0.0
23/02:00pm 25.8 22.7 3.7 24 11.0 SSE 9 15 5 8 1024.2 1023.7 0.0
23/01:30pm 26.6 24.0 4.4 24 11.3 NE 7 13 4 7 1024.5 1023.9 0.0
23/01:00pm 25.6 23.0 4.1 25 10.8 ENE 7 13 4 7 1024.7 1024.1 0.0
23/12:30pm 25.4 22.9 4.5 26 10.6 ESE 7 15 4 8 1025.1 1024.5 0.0
23/12:00pm 25.2 22.7 4.9 27 10.3 NE 7 17 4 9 1025.5 1025.0 0.0
23/11:30am 25.2 22.9 4.9 27 10.3 NNE 6 15 3 8 1025.9 1025.4 0.0
23/11:00am 23.9 20.9 4.3 28 9.7 N 9 15 5 8 1026.4 1025.9 0.0
23/10:30am 24.0 21.1 4.9 29 9.7 NNW 9 17 5 9 1026.6 1026.1 0.0
23/10:00am 22.6 19.3 4.6 31 8.9 NNW 11 19 6 10 1026.7 1026.2 0.0
23/09:30am 21.8 17.7 4.4 32 8.6 NNW 15 20 8 11 1026.8 1026.3 0.0
23/09:00am 20.5 16.1 4.5 35 7.8 N 17 22 9 12 1026.9 1026.4 0.0
23/08:30am 18.9 14.8 4.3 38 7.0 N 15 24 8 13 1026.9 1026.4 0.0
23/08:00am 17.2 13.1 4.5 43 6.0 N 15 20 8 11 1026.7 1026.2 0.0
23/07:30am 14.7 11.4 4.4 50 4.8 N 11 17 6 9 1026.3 1025.8 0.0
23/07:00am 12.1 9.5 4.1 58 3.6 N 7 11 4 6 1026.2 1025.7 0.0
23/06:30am 10.9 7.8 3.5 60 3.3 N 9 13 5 7 1026.0 1025.5 0.0
23/06:00am 11.2 7.4 3.7 60 3.3 NNE 13 17 7 9 1025.7 1025.2 0.0
23/05:30am 11.5 8.0 3.5 58 3.6 N 11 15 6 8 1025.7 1025.2 0.0
23/05:00am 11.5 8.0 3.5 58 3.6 NNE 11 15 6 8 1025.7 1025.2 0.0
23/04:30am 10.9 7.4 3.5 60 3.3 NNE 11 13 6 7 1025.7 1025.2 0.0
23/04:00am 11.4 8.0 3.9 60 3.4 NNE 11 13 6 7 1025.5 1025.0 0.0
23/03:30am 11.5 8.1 4.0 60 3.4 NNE 11 15 6 8 1025.3 1024.7 0.0
23/03:00am 11.8 8.0 4.1 59 3.5 NNE 13 17 7 9 1025.2 1024.6 0.0
23/02:30am 11.2 7.8 4.2 62 3.2 NNE 11 13 6 7 1025.3 1024.7 0.0
23/02:00am 11.5 8.2 4.3 61 3.3 NNE 11 13 6 7 1025.2 1024.6 0.0
23/01:30am 12.2 8.5 4.7 60 3.5 NNE 13 15 7 8 1025.1 1024.5 0.0
23/01:00am 12.2 8.2 4.9 61 3.4 NE 15 17 8 9 1024.9 1024.3 0.0
23/12:30am 12.4 8.9 5.3 62 3.3 NE 13 17 7 9 1025.0 1024.4 0.0
23/12:00am 11.8 8.3 5.4 65 3.0 NE 13 15 7 8 1025.1 1024.5 0.0
 
Date/Time
WST
Temp
°C
App
Temp
°C
Dew
Point
°C
Rel
Hum
%
Delta-T
°C
Wind Press
QNH
hPa
Press
MSL
hPa
Rain since
9am
mm
Dir  Spd
km/h
Gust
km/h
Spd
kts
Gust
kts
22/11:30pm 12.2 8.8 6.0 66 2.9 NE 13 17 7 9 1025.2 1024.6 0.0
22/11:00pm 12.5 8.8 6.1 65 3.0 NE 15 17 8 9 1025.2 1024.6 0.0
22/10:30pm 13.0 9.3 6.1 63 3.3 ENE 15 20 8 11 1025.2 1024.6 0.0
22/10:00pm 13.6 9.4 5.7 59 3.8 ENE 17 22 9 12 1025.2 1024.6 0.0
22/09:30pm 13.7 9.1 5.6 58 3.9 ENE 19 22 10 12 1025.4 1024.9 0.0
22/09:00pm 14.2 10.3 5.3 55 4.2 E 15 19 8 10 1025.3 1024.7 0.0
22/08:30pm 14.9 10.7 3.7 47 5.2 ENE 15 17 8 9 1025.1 1024.5 0.0
22/08:00pm 15.4 11.5 3.5 45 5.5 ENE 13 15 7 8 1024.9 1024.3 0.0
22/07:30pm 15.4 11.6 3.9 46 5.4 E 13 15 7 8 1024.6 1024.0 0.0
22/07:00pm 16.1 12.7 3.9 44 5.7 E 11 15 6 8 1024.2 1023.7 0.0
22/06:30pm 18.5 14.9 3.2 36 7.2 NE 11 13 6 7 1023.8 1023.3 0.0
22/06:00pm 18.9 15.3 3.1 35 7.4 ENE 11 11 6 6 1023.7 1023.2 0.0
22/05:30pm 20.2 17.4 3.4 33 8.0 NE 7 9 4 5 1023.5 1023.0 0.0
22/05:00pm 22.7 20.2 3.8 29 9.2 NNE 6 11 3 6 1023.3 1022.8 0.0
22/04:30pm 23.7 21.1 4.1 28 9.7 N 7 13 4 7 1023.1 1022.6 0.0
22/04:00pm 23.8 21.3 3.7 27 9.9 NNE 6 15 3 8 1023.2 1022.7 0.0
22/03:30pm 24.1 21.1 4.0 27 10.0 N 9 19 5 10 1023.1 1022.6 0.0
22/03:00pm 24.1 20.6 3.4 26 10.1 NNE 11 22 6 12 1023.2 1022.7 0.0
22/02:30pm 24.2 20.8 4.0 27 10.1 N 11 19 6 10 1023.3 1022.8 0.0
22/02:00pm 23.8 19.6 3.7 27 9.9 N 15 24 8 13 1023.6 1023.1 0.0
22/01:30pm 23.7 19.5 3.6 27 9.9 N 15 22 8 12 1023.9 1023.4 0.0
22/01:00pm 23.4 19.2 3.9 28 9.6 NNW 15 26 8 14 1024.2 1023.7 0.0
22/12:30pm 22.6 18.0 3.7 29 9.3 N 17 33 9 18 1024.7 1024.1 0.0
22/12:00pm 22.5 18.7 4.1 30 9.0 NNW 13 22 7 12 1025.3 1024.7 0.0
22/11:30am 21.2 16.6 3.9 32 8.4 NNW 17 26 9 14 1025.6 1025.1 0.0
22/11:00am 21.0 16.0 3.7 32 8.3 N 19 28 10 15 1025.9 1025.4 0.0
22/10:30am 20.2 14.7 3.9 34 7.9 N 22 33 12 18 1026.2 1025.7 0.0
22/10:00am 19.6 13.7 4.1 36 7.4 N 24 33 13 18 1026.5 1026.0 0.0
22/09:30am 18.8 13.4 4.6 39 6.9 NNW 22 32 12 17 1026.9 1026.4 0.0
22/09:00am 17.1 12.1 4.8 44 5.9 N 20 30 11 16 1027.1 1026.6 0.0
22/08:30am 15.3 10.4 5.0 50 4.9 N 20 28 11 15 1027.1 1026.6 0.0
22/08:00am 13.4 8.7 5.1 57 3.9 N 19 32 10 17 1026.9 1026.4 0.0
22/07:30am 11.3 7.1 5.8 69 2.6 NNE 17 24 9 13 1026.6 1026.1 0.0
22/07:00am 9.4 5.7 6.1 80 1.5 NNE 15 20 8 11 1026.3 1025.8 0.0
22/06:30am 8.5 4.4 6.1 85 1.1 NNE 17 20 9 11 1026.2 1025.7 0.0
22/06:00am 8.2 4.1 6.3 88 0.9 NNE 17 22 9 12 1025.9 1025.4 0.0
22/05:30am 8.1 4.5 6.6 90 0.7 NNE 15 22 8 12 1025.9 1025.4 0.0
22/05:00am 8.3 4.3 6.8 90 0.7 NE 17 24 9 13 1025.9 1025.4 0.0
22/04:30am 8.4 4.5 7.0 91 0.7 NE 17 22 9 12 1025.9 1025.4 0.0
22/04:00am 8.9 5.0 7.2 89 0.8 NE 17 20 9 11 1025.9 1025.4 0.0
22/03:30am 9.2 5.8 7.5 89 0.8 NE 15 20 8 11 1025.8 1025.3 0.0
22/03:00am 9.2 5.8 7.8 91 0.7 NE 15 20 8 11 1025.8 1025.3 0.0
22/02:30am 9.4 6.1 8.2 92 0.6 NE 15 19 8 10 1025.7 1025.2 0.0
22/02:00am 9.5 6.3 8.4 93 0.5 NE 15 19 8 10 1025.8 1025.3 0.0
22/01:30am 9.8 6.7 8.7 93 0.5 NE 15 20 8 11 1026.0 1025.5 0.0
22/01:00am 10.3 7.3 9.4 94 0.5 NE 15 19 8 10 1026.0 1025.5 0.0
22/12:30am 10.1 7.2 9.5 96 0.3 NE 15 17 8 9 1026.1 1025.6 0.0
22/12:00am 9.9 6.5 9.1 95 0.4 NE 17 20 9 11 1026.1 1025.6 0.0
 
Date/Time
WST
Temp
°C
App
Temp
°C
Dew
Point
°C
Rel
Hum
%
Delta-T
°C
Wind Press
QNH
hPa
Press
MSL
hPa
Rain since
9am
mm
Dir  Spd
km/h
Gust
km/h
Spd
kts
Gust
kts
21/11:30pm 10.7 7.4 9.6 93 0.6 ENE 17 20 9 11 1026.2 1025.7 0.0
21/11:00pm 11.0 8.0 9.4 90 0.8 ENE 15 19 8 10 1026.5 1026.0 0.0
21/10:30pm 11.2 8.6 9.5 89 0.9 ENE 13 17 7 9 1026.7 1026.2 0.0
21/10:00pm 11.5 8.6 9.6 88 1.0 ENE 15 20 8 11 1026.9 1026.4 0.0
21/09:30pm 11.9 9.4 9.6 86 1.2 E 13 20 7 11 1027.1 1026.6 0.0
21/09:00pm 12.0 9.4 9.4 84 1.3 E 13 15 7 8 1027.2 1026.7 0.0
21/08:30pm 12.3 9.7 9.3 82 1.5 E 13 15 7 8 1027.5 1027.0 0.0
21/08:00pm 12.2 9.8 8.7 79 1.8 E 11 15 6 8 1027.3 1026.8 0.0
21/07:30pm 12.1 9.1 7.8 75 2.1 E 13 17 7 9 1027.3 1026.8 0.0
21/07:00pm 12.4 9.4 7.5 72 2.4 ESE 13 15 7 8 1027.2 1026.7 0.0
21/06:30pm 12.9 9.8 7.1 68 2.8 ESE 13 17 7 9 1027.0 1026.5 0.0
21/06:00pm 13.7 10.6 7.2 65 3.2 SE 13 17 7 9 1026.8 1026.3 0.0
21/05:30pm 14.9 11.3 6.7 58 4.0 SE 15 17 8 9 1026.5 1026.0 0.0
21/05:00pm 16.5 12.6 7.2 54 4.6 SE 17 22 9 12 1026.2 1025.7 0.0
21/04:30pm 17.7 13.8 7.2 50 5.3 SE 17 26 9 14 1026.1 1025.6 0.0
21/04:00pm 19.3 15.8 3.5 35 7.5 SSE 11 17 6 9 1025.9 1025.4 0.0
21/03:30pm 19.8 16.5 2.6 32 8.1 SSE 9 17 5 9 1025.9 1025.4 0.0
21/03:00pm 19.7 16.1 3.0 33 7.9 SSW 11 20 6 11 1025.9 1025.4 0.0
21/02:30pm 20.1 17.2 2.5 31 8.3 S 7 15 4 8 1026.0 1025.5 0.0
21/02:00pm 20.2 17.9 2.5 31 8.3 NNE 4 11 2 6 1026.3 1025.8 0.0
21/01:30pm 19.4 16.4 2.3 32 8.0 SW 7 11 4 6 1026.5 1026.0 0.0
21/01:00pm 19.5 15.7 1.5 30 8.2 SW 11 19 6 10 1026.9 1026.4 0.0
21/12:30pm 18.2 15.2 1.7 33 7.5 WSW 7 13 4 7 1027.4 1026.9 0.0
21/12:00pm 17.9 15.2 2.6 36 7.0 SSE 6 9 3 5 1027.7 1027.2 0.0
21/11:30am 17.6 15.0 4.2 41 6.4 SW 7 13 4 7 1028.1 1027.6 0.0
21/11:00am 17.2 15.3 4.9 44 5.9 NNW 4 9 2 5 1028.5 1028.0 0.0
21/10:30am 16.4 14.1 5.7 49 5.2 WNW 7 11 4 6 1029.0 1028.5 0.0
21/10:00am 15.0 12.7 5.8 54 4.4 W 7 11 4 6 1028.8 1028.3 0.0
21/09:30am 13.4 10.7 5.6 59 3.7 WSW 9 13 5 7 1029.0 1028.5 0.0
21/09:00am 12.4 10.1 5.8 64 3.1 W 7 9 4 5 1029.0 1028.5 0.0
21/08:30am 10.9 8.2 5.7 70 2.4 W 9 13 5 7 1029.0 1028.5 0.0
21/08:00am 9.6 7.3 5.8 77 1.7 W 7 11 4 6 1029.3 1028.8 0.0
21/07:30am 7.4 5.0 5.4 87 0.9 NW 7 9 4 5 1028.6 1028.1 0.0
21/07:00am 6.2 3.7 4.8 91 0.6 NNW 7 9 4 5 1028.2 1027.7 0.0
21/06:30am 6.2 3.4 5.0 92 0.5 NW 9 13 5 7 1027.9 1027.4 0.0
21/06:00am 5.2 2.2 4.3 94 0.4 NNW 9 11 5 6 1027.2 1026.7 0.0
21/05:30am 5.7 2.8 4.7 93 0.4 NW 9 11 5 6 1027.1 1026.6 0.0
21/05:00am 5.8 2.9 4.6 92 0.5 NW 9 9 5 5 1027.1 1026.6 0.0
21/04:30am 5.7 2.8 4.5 92 0.5 NW 9 11 5 6 1026.9 1026.4 0.0
21/04:00am 5.8 2.9 4.8 93 0.4 NW 9 11 5 6 1026.7 1026.2 0.0
21/03:30am 5.0 2.0 4.3 95 0.3 NNW 9 11 5 6 1026.3 1025.8 0.0
21/03:00am 5.2 2.6 4.3 94 0.4 NNW 7 9 4 5 1026.2 1025.7 0.0
21/02:30am 5.5 2.6 4.6 94 0.4 NNW 9 9 5 5 1026.3 1025.8 0.0
21/02:00am 5.9 3.3 4.4 90 0.6 NW 7 9 4 5 1026.5 1026.0 0.0
21/01:30am 7.4 5.0 5.4 87 0.9 WNW 7 13 4 7 1026.5 1026.0 0.0
21/01:00am 7.9 4.8 5.5 85 1.1 W 11 13 6 7 1026.4 1025.9 0.0
21/12:30am 8.1 5.8 5.6 84 1.1 WNW 7 11 4 6 1026.3 1025.8 0.0
21/12:00am 8.4 5.8 6.0 85 1.1 WNW 9 13 5 7 1026.2 1025.7 0.0
 
Date/Time
WST
Temp
°C
App
Temp
°C
Dew
Point
°C
Rel
Hum
%
Delta-T
°C
Wind Press
QNH
hPa
Press
MSL
hPa
Rain since
9am
mm
Dir  Spd
km/h
Gust
km/h
Spd
kts
Gust
kts
20/11:30pm 8.8 6.3 6.4 85 1.1 WNW 9 13 5 7 1026.2 1025.7 0.0
20/11:00pm 9.4 6.9 6.7 83 1.3 WNW 9 13 5 7 1026.2 1025.7 0.0
20/10:30pm 10.4 7.6 6.9 79 1.7 W 11 15 6 8 1026.5 1026.0 0.0
20/10:00pm 10.8 8.0 7.1 78 1.8 W 11 15 6 8 1026.4 1025.9 0.0
20/09:30pm 10.5 7.9 7.6 82 1.4 W 11 15 6 8 1026.3 1025.8 0.0
20/09:00pm 10.0 7.3 7.4 84 1.2 W 11 15 6 8 1026.3 1025.8 0.0
20/08:30pm 9.4 6.6 7.0 85 1.1 WNW 11 15 6 8 1026.2 1025.7 0.0
20/08:00pm 9.3 6.0 6.6 83 1.3 W 13 20 7 11 1025.8 1025.3 0.0
20/07:30pm 10.4 6.7 6.2 75 2.0 W 15 20 8 11 1025.6 1025.1 0.0
20/07:00pm 10.3 7.0 6.3 76 1.9 WSW 13 17 7 9 1025.4 1024.9 0.0
20/06:30pm 10.9 6.7 5.9 71 2.3 WSW 17 26 9 14 1025.3 1024.7 0.0
20/06:00pm 11.1 6.0 5.8 70 2.5 WSW 22 32 12 17 1024.7 1024.1 0.0
20/05:30pm 11.6 6.1 5.7 67 2.8 SW 24 33 13 18 1024.2 1023.7 0.0
20/05:00pm 12.4 6.2 4.1 57 3.8 SW 26 35 14 19 1023.8 1023.3 0.0
20/04:30pm 13.0 5.7 4.4 56 4.0 SW 32 41 17 22 1023.7 1023.2 0.0

Other formats

Comma delimited format used in spreadsheet applications
http://www.bom.gov.au/fwo/IDW60801/IDW60801.95644.axf

JavaScript Object Notation format (JSON) in row-major order
http://www.bom.gov.au/fwo/IDW60801/IDW60801.95644.json

Data quality

Most of these data are generated automatically and are frequently updated. Quality checks on data are not normally performed. It is possible for incorrect values to appear. Refer to information at About Latest Weather Observations and please check the disclaimer before using these data.